Time;durP1;ratioP1;P1;durP2;ratioP2;P2;SDS_P1;SDS_P2;PMS_P1;PMS_P2;Temp;Humidity;BMP_temperature;BMP_pressure;BME280_temperature;BME280_humidity;BME280_pressure;Samples;Min_cycle;Max_cycle;Signal;HPM_P1;HPM_P2
2024/02/22 00:04:32;;;;;;;0.00;0.00;;;;;;;8.99;61.49;100069.31;15794082;28;20101;-48
2024/02/22 00:12:07;;;;;;;0.00;0.00;;;;;;;9.05;60.53;100047.03;15791261;28;20048;-46
2024/02/22 00:19:41;;;;;;;0.15;0.15;;;;;;;8.81;60.72;100021.03;15799685;28;20135;-48
2024/02/22 00:27:15;;;;;;;;;;;;;;;8.71;61.17;100002.78;15800049;28;20087;-48
2024/02/22 00:34:51;;;;;;;0.52;0.52;;;;;;;8.42;62.08;99970.25;15795837;28;19932;-49
2024/02/22 00:42:26;;;;;;;0.00;0.00;;;;;;;8.53;61.56;99950.03;15780850;28;20156;-50
2024/02/22 00:50:01;;;;;;;0.00;0.00;;;;;;;8.55;61.66;99944.47;15793523;28;20040;-48
2024/02/22 00:57:36;;;;;;;0.38;0.10;;;;;;;8.57;61.73;99929.03;15798453;28;20042;-50
2024/02/22 01:05:12;;;;;;;0.00;0.00;;;;;;;8.49;61.70;99916.75;15792085;28;20420;-49
2024/02/22 01:12:47;;;;;;;;;;;;;;;8.46;61.91;99894.97;15768216;28;20072;-49
2024/02/22 01:20:20;;;;;;;0.00;0.00;;;;;;;8.48;61.74;99879.50;15792501;28;19946;-47
2024/02/22 01:28:00;;;;;;;0.00;0.00;;;;;;;8.87;60.60;99863.13;15794095;28;20044;-48
2024/02/22 01:35:35;;;;;;;0.00;0.00;;;;;;;8.52;61.41;99841.41;15784580;28;20501;-51
2024/02/22 01:43:11;;;;;;;0.20;0.10;;;;;;;8.88;60.25;99819.25;15786994;28;20040;-48
2024/02/22 01:50:52;;;;;;;0.00;0.00;;;;;;;8.87;59.60;99790.06;15793731;28;20036;-49
2024/02/22 01:58:32;;;;;;;0.45;0.20;;;;;;;9.10;58.88;99766.13;15793732;28;20040;-49
2024/02/22 02:06:12;;;;;;;0.00;0.00;;;;;;;9.34;58.21;99750.97;15760610;28;20040;-46
2024/02/22 02:13:58;;;;;;;0.10;0.10;;;;;;;9.18;58.68;99735.50;15794178;28;20140;-48
2024/02/22 02:21:37;;;;;;;0.00;0.00;;;;;;;9.34;58.70;99710.81;15772527;28;20047;-46
2024/02/22 02:29:12;;;;;;;0.20;0.20;;;;;;;9.57;58.22;99706.56;15784308;28;20135;-53
2024/02/22 02:36:46;;;;;;;0.00;0.00;;;;;;;9.76;58.04;99683.19;15799041;28;20567;-47
2024/02/22 02:44:28;;;;;;;0.00;0.00;;;;;;;9.88;57.97;99655.34;15806087;28;20040;-50
2024/02/22 02:52:02;;;;;;;0.00;0.00;;;;;;;9.78;58.82;99647.06;15805487;28;20887;-49
2024/02/22 02:59:37;;;;;;;0.00;0.00;;;;;;;9.88;58.66;99633.09;15797700;28;20040;-49
2024/02/22 03:07:11;;;;;;;0.00;0.00;;;;;;;9.81;59.68;99621.69;15794499;28;20047;-47
2024/02/22 03:14:49;;;;;;;0.00;0.00;;;;;;;9.77;60.53;99607.94;15781970;28;20032;-46
2024/02/22 03:22:23;;;;;;;0.00;0.00;;;;;;;9.65;60.51;99583.81;15801275;28;20123;-45
2024/02/22 03:29:59;;;;;;;0.00;0.00;;;;;;;9.56;62.55;99590.56;15803839;28;20131;-49
2024/02/22 03:37:33;;;;;;;0.00;0.00;;;;;;;9.52;63.97;99580.53;15791903;28;20064;-51
2024/02/22 03:45:10;;;;;;;0.00;0.00;;;;;;;9.30;65.33;99565.03;15763633;28;20036;-46
2024/02/22 03:52:45;;;;;;;0.20;0.20;;;;;;;9.33;65.40;99551.19;15801107;28;20151;-46
2024/02/22 04:00:22;;;;;;;0.20;0.20;;;;;;;9.38;65.26;99542.47;15803705;28;20072;-45
2024/02/22 04:07:57;;;;;;;0.08;0.08;;;;;;;9.29;66.04;99527.78;15811612;22;20110;-52
2024/02/22 04:15:32;;;;;;;0.00;0.00;;;;;;;9.35;66.03;99511.59;15795304;28;20381;-49
2024/02/22 04:23:06;;;;;;;0.00;0.00;;;;;;;9.29;66.68;99498.31;15775948;28;20094;-51
2024/02/22 04:30:46;;;;;;;0.00;0.00;;;;;;;9.28;66.77;99478.75;15795871;28;20048;-48
2024/02/22 04:38:24;;;;;;;0.00;0.00;;;;;;;9.10;67.42;99470.84;15794803;28;20048;-47
2024/02/22 04:46:00;;;;;;;0.00;0.00;;;;;;;9.33;67.21;99473.53;15790782;28;20054;-52
2024/02/22 04:53:34;;;;;;;0.00;0.00;;;;;;;9.18;67.74;99468.59;15786357;28;20094;-47
2024/02/22 05:01:11;;;;;;;0.00;0.00;;;;;;;9.05;69.07;99452.81;15790899;28;20040;-52
2024/02/22 05:08:45;;;;;;;0.00;0.00;;;;;;;8.96;70.07;99442.66;15792660;28;20062;-51
2024/02/22 05:16:20;;;;;;;0.20;0.20;;;;;;;8.76;71.86;99425.06;15791911;28;20302;-49
2024/02/22 05:23:54;;;;;;;0.00;0.00;;;;;;;8.86;72.96;99417.28;15794195;28;20052;-48
2024/02/22 05:31:30;;;;;;;0.00;0.00;;;;;;;8.62;74.21;99408.41;15790506;28;20126;-46
2024/02/22 05:39:07;;;;;;;0.00;0.00;;;;;;;8.78;74.51;99400.75;15790588;28;20120;-51
2024/02/22 05:46:42;;;;;;;0.00;0.00;;;;;;;8.64;75.58;99389.47;15782504;28;20040;-46
2024/02/22 05:54:17;;;;;;;0.08;0.08;;;;;;;8.47;75.90;99367.09;15792935;28;20544;-51
2024/02/22 06:02:12;;;;;;;0.00;0.00;;;;;;;8.64;75.16;99366.19;15791622;28;20168;-50
2024/02/22 06:09:50;;;;;;;0.00;0.00;;;;;;;8.52;75.53;99352.00;15791880;28;20127;-52
2024/02/22 06:17:25;;;;;;;0.00;0.00;;;;;;;8.86;75.57;99341.53;15788478;28;20032;-51
2024/02/22 06:24:59;;;;;;;0.05;0.05;;;;;;;8.47;76.47;99306.41;15789151;28;20052;-48
2024/02/22 06:32:35;;;;;;;0.03;0.03;;;;;;;8.66;76.63;99323.16;15774962;28;20028;-47
2024/02/22 06:40:12;;;;;;;0.00;0.00;;;;;;;8.60;77.72;99311.53;15774465;28;20433;-45
2024/02/22 06:47:51;;;;;;;0.00;0.00;;;;;;;8.41;78.94;99310.84;15791157;28;20052;-43
2024/02/22 06:55:27;;;;;;;0.00;0.00;;;;;;;8.55;79.32;99294.56;15792128;28;20040;-45
2024/02/22 07:03:04;;;;;;;0.22;0.22;;;;;;;8.58;80.14;99280.72;15773858;28;20040;-44
2024/02/22 07:10:38;;;;;;;0.00;0.00;;;;;;;8.21;81.71;99277.41;15789834;28;20055;-46
2024/02/22 07:18:13;;;;;;;0.00;0.00;;;;;;;8.49;81.29;99261.56;15795360;28;20064;-51
2024/02/22 07:25:47;;;;;;;0.00;0.00;;;;;;;8.21;83.25;99256.03;15780386;28;20060;-49
2024/02/22 07:33:23;;;;;;;0.00;0.00;;;;;;;8.09;84.22;99246.16;15798782;28;20085;-51
2024/02/22 07:40:57;;;;;;;0.10;0.10;;;;;;;8.30;84.58;99234.09;15800992;28;20059;-48
2024/02/22 07:48:33;;;;;;;0.10;0.10;;;;;;;8.33;85.17;99230.94;15789143;28;20044;-52
2024/02/22 07:56:10;;;;;;;0.10;0.10;;;;;;;8.62;84.14;99228.38;15797366;28;20400;-52
2024/02/22 08:03:46;;;;;;;0.13;0.13;;;;;;;8.26;86.33;99224.09;15797846;28;20504;-45
2024/02/22 08:11:23;;;;;;;0.00;0.00;;;;;;;8.22;87.02;99214.91;15797931;28;20084;-49
2024/02/22 08:18:58;;;;;;;0.10;0.10;;;;;;;8.42;86.50;99204.69;15780381;28;20045;-49
2024/02/22 08:26:31;;;;;;;0.00;0.00;;;;;;;8.31;86.76;99194.81;15792620;28;20154;-49
2024/02/22 08:34:08;;;;;;;0.00;0.00;;;;;;;8.31;87.32;99187.59;15792313;28;20125;-45
2024/02/22 08:41:45;;;;;;;0.10;0.10;;;;;;;8.31;87.62;99181.44;15796543;28;20090;-46
2024/02/22 08:49:19;;;;;;;;;;;;;;;8.41;87.54;99176.34;15780323;28;20040;-45
2024/02/22 08:56:57;;;;;;;0.10;0.10;;;;;;;8.27;87.54;99137.50;15797870;28;19920;-43
2024/02/22 09:04:33;;;;;;;0.00;0.00;;;;;;;8.34;87.80;99160.38;15795559;28;20048;-46
2024/02/22 09:12:07;;;;;;;0.00;0.00;;;;;;;8.69;86.56;99141.63;15796546;28;20043;-44
2024/02/22 09:19:43;;;;;;;0.00;0.00;;;;;;;8.29;88.42;99143.41;15794300;28;20485;-45
2024/02/22 09:27:17;;;;;;;0.10;0.10;;;;;;;8.50;87.49;99142.03;15780488;28;20118;-48
2024/02/22 09:34:52;;;;;;;0.10;0.10;;;;;;;8.59;88.26;99132.59;15783082;28;20057;-45
2024/02/22 09:42:26;;;;;;;0.13;0.10;;;;;;;8.60;88.10;99128.88;15792489;28;20036;-45
2024/02/22 09:50:09;;;;;;;0.00;0.00;;;;;;;8.80;88.17;99117.75;15791099;28;20439;-44
2024/02/22 09:57:43;;;;;;;0.25;0.25;;;;;;;8.66;89.09;99120.69;15768125;28;20039;-43
2024/02/22 10:05:19;;;;;;;0.00;0.00;;;;;;;8.79;89.18;99111.59;15787590;22;20107;-50
2024/02/22 10:12:56;;;;;;;0.00;0.00;;;;;;;9.03;88.97;99104.28;15730622;28;20048;-50
2024/02/22 10:20:33;;;;;;;0.00;0.00;;;;;;;8.98;89.10;99092.66;15724266;28;20106;-49
2024/02/22 10:28:08;;;;;;;0.15;0.13;;;;;;;9.09;89.19;99087.28;15701251;28;20519;-47
2024/02/22 10:35:45;;;;;;;0.00;0.00;;;;;;;9.41;88.32;99060.75;15721280;28;20029;-49
2024/02/22 10:43:19;;;;;;;0.25;0.25;;;;;;;9.47;88.38;99053.63;15721962;28;20041;-48
2024/02/22 10:50:55;;;;;;;0.08;0.08;;;;;;;10.18;87.35;99035.03;15725587;28;20432;-50
2024/02/22 10:58:32;;;;;;;0.00;0.00;;;;;;;10.06;86.00;99024.41;15740239;28;20037;-49
2024/02/22 11:06:08;;;;;;;0.00;0.00;;;;;;;10.25;85.02;99018.78;15741800;28;20408;-50
2024/02/22 11:13:41;;;;;;;0.00;0.00;;;;;;;10.12;86.36;99001.19;15742649;28;20040;-48
2024/02/22 11:21:19;;;;;;;3.30;0.30;;;;;;;10.30;85.89;98978.63;15726189;28;20440;-50
2024/02/22 11:28:53;;;;;;;1.55;0.32;;;;;;;10.79;84.46;98963.28;15727803;28;20110;-51
2024/02/22 11:36:31;;;;;;;0.00;0.00;;;;;;;11.06;82.43;98957.88;15720491;28;20044;-47
2024/02/22 11:44:07;;;;;;;0.00;0.00;;;;;;;10.90;83.04;98948.88;15733782;28;20135;-47
2024/02/22 11:51:43;;;;;;;0.00;0.00;;;;;;;10.58;84.20;98930.06;15739304;28;20033;-49
2024/02/22 11:59:16;;;;;;;0.20;0.17;;;;;;;10.43;85.55;98932.63;15738476;28;20045;-50
2024/02/22 12:06:51;;;;;;;0.00;0.00;;;;;;;10.25;86.57;98923.06;15737880;28;20509;-48
2024/02/22 12:14:25;;;;;;;0.00;0.00;;;;;;;10.65;85.94;98897.69;15734168;28;20135;-48
2024/02/22 12:22:01;;;;;;;0.05;0.05;;;;;;;10.67;85.54;98893.66;15738248;28;20062;-49
2024/02/22 12:29:35;;;;;;;0.00;0.00;;;;;;;10.68;85.63;98871.16;15738164;28;20040;-50
2024/02/22 12:37:10;;;;;;;0.00;0.00;;;;;;;10.64;86.21;98858.50;15734272;28;20040;-49
2024/02/22 12:44:44;;;;;;;0.00;0.00;;;;;;;10.62;86.07;98842.66;15734485;28;20060;-50
2024/02/22 12:52:19;;;;;;;;;;;;;;;10.89;85.02;98817.63;15725923;28;20163;-50
2024/02/22 12:59:52;;;;;;;0.00;0.00;;;;;;;11.37;83.72;98791.53;15733688;28;19924;-50
2024/02/22 13:07:27;;;;;;;0.17;0.17;;;;;;;11.94;81.87;98772.66;15736059;28;20064;-50
2024/02/22 13:15:01;;;;;;;0.00;0.00;;;;;;;12.22;78.34;98767.81;15734164;28;20098;-49
2024/02/22 13:22:36;;;;;;;0.00;0.00;;;;;;;11.69;79.11;98757.22;15734802;28;20075;-50
2024/02/22 13:30:14;;;;;;;0.00;0.00;;;;;;;11.80;79.84;98743.81;15732765;28;20114;-50
2024/02/22 13:37:51;;;;;;;0.00;0.00;;;;;;;11.33;81.34;98737.56;15732434;28;20473;-49
2024/02/22 13:45:26;;;;;;;0.00;0.00;;;;;;;11.62;79.45;98727.13;15730332;28;20080;-52
2024/02/22 13:53:01;;;;;;;0.00;0.00;;;;;;;11.36;80.48;98722.78;15728208;28;20385;-52
2024/02/22 14:00:35;;;;;;;0.00;0.00;;;;;;;11.49;79.90;98693.53;15730222;28;20071;-49
2024/02/22 14:08:10;;;;;;;0.00;0.00;;;;;;;11.67;79.07;98696.78;15714693;28;20040;-47
2024/02/22 14:15:46;;;;;;;0.00;0.00;;;;;;;11.92;77.85;98669.13;15728263;28;20485;-50
2024/02/22 14:23:21;;;;;;;0.00;0.00;;;;;;;12.50;75.24;98651.53;15730879;28;20215;-50
2024/02/22 14:30:56;;;;;;;0.05;0.05;;;;;;;12.37;75.49;98627.91;15744528;28;20174;-49
2024/02/22 14:38:35;;;;;;;0.00;0.00;;;;;;;12.31;74.63;98629.00;15741554;28;20086;-51
2024/02/22 14:46:09;;;;;;;0.00;0.00;;;;;;;12.05;74.39;98587.09;15717796;28;20428;-51
2024/02/22 14:53:44;;;;;;;0.00;0.00;;;;;;;11.96;74.57;98606.47;15744254;28;20047;-50
2024/02/22 15:01:18;;;;;;;0.10;0.10;;;;;;;12.59;72.52;98605.22;15743902;28;20056;-47
2024/02/22 15:08:55;;;;;;;0.00;0.00;;;;;;;12.43;72.97;98586.44;15741691;28;20577;-50
2024/02/22 15:16:29;;;;;;;0.17;0.15;;;;;;;11.91;74.77;98578.81;15741838;28;20063;-49
2024/02/22 15:24:05;;;;;;;0.00;0.00;;;;;;;11.99;74.63;98556.75;15739973;28;20094;-49
2024/02/22 15:31:40;;;;;;;0.03;0.03;;;;;;;11.88;74.62;98549.75;15738148;28;20040;-47
2024/02/22 15:39:16;;;;;;;0.10;0.10;;;;;;;11.97;74.12;98543.56;15737490;28;20041;-48
2024/02/22 15:46:50;;;;;;;0.10;0.10;;;;;;;11.71;74.75;98537.41;15729370;28;20049;-49
2024/02/22 15:54:26;;;;;;;0.00;0.00;;;;;;;11.78;74.79;98520.19;15738787;28;20057;-49
2024/02/22 16:02:00;;;;;;;0.00;0.00;;;;;;;11.58;74.96;98515.66;15738449;28;20268;-50
2024/02/22 16:09:35;;;;;;;0.00;0.00;;;;;;;11.48;75.64;98503.06;15735814;28;20067;-50
2024/02/22 16:17:09;;;;;;;0.50;0.13;;;;;;;11.70;75.09;98502.72;15739646;28;20039;-50
2024/02/22 16:24:49;;;;;;;0.00;0.00;;;;;;;11.06;79.17;98480.00;15737799;28;20052;-49
2024/02/22 16:32:23;;;;;;;0.00;0.00;;;;;;;10.79;81.14;98482.94;15739526;28;20402;-51
2024/02/22 16:40:00;;;;;;;0.10;0.10;;;;;;;10.68;81.74;98457.16;15738464;28;20110;-49
2024/02/22 16:47:36;;;;;;;0.00;0.00;;;;;;;10.68;81.77;98438.38;15731343;28;20123;-49
2024/02/22 16:55:10;;;;;;;0.30;0.30;;;;;;;10.65;81.95;98428.19;15735443;28;20083;-49
2024/02/22 17:02:45;;;;;;;1.38;0.40;;;;;;;10.77;80.89;98420.69;15739343;28;20404;-49
2024/02/22 17:10:20;;;;;;;0.00;0.00;;;;;;;10.79;80.59;98426.56;15733876;28;20109;-50
2024/02/22 17:17:55;;;;;;;0.00;0.00;;;;;;;10.78;80.43;98403.50;15739885;28;20440;-49
2024/02/22 17:25:30;;;;;;;0.00;0.00;;;;;;;10.76;80.61;98386.84;15721179;28;20414;-50
2024/02/22 17:33:10;;;;;;;0.00;0.00;;;;;;;10.75;81.74;98374.50;15717985;28;20044;-47
2024/02/22 17:40:48;;;;;;;0.25;0.08;;;;;;;10.64;82.05;98372.91;15738623;28;20048;-50
2024/02/22 17:48:23;;;;;;;0.00;0.00;;;;;;;10.62;81.91;98350.91;15732912;28;20605;-51
2024/02/22 17:55:59;;;;;;;0.00;0.00;;;;;;;10.59;81.67;98338.84;15734290;28;20052;-53
2024/02/22 18:03:32;;;;;;;0.00;0.00;;;;;;;10.70;80.90;98329.72;15733125;28;20063;-50
2024/02/22 18:11:07;;;;;;;0.00;0.00;;;;;;;10.53;81.34;98310.41;15735147;28;20150;-49
2024/02/22 18:18:44;;;;;;;0.00;0.00;;;;;;;10.62;80.51;98298.06;15723467;28;20094;-52
2024/02/22 18:26:19;;;;;;;0.00;0.00;;;;;;;10.75;80.48;98285.16;15724611;28;20270;-52
2024/02/22 18:33:53;;;;;;;0.00;0.00;;;;;;;10.75;80.23;98271.75;15735701;28;20044;-49
2024/02/22 18:41:28;;;;;;;0.00;0.00;;;;;;;10.79;79.97;98254.03;15749203;28;20084;-49
2024/02/22 18:49:01;;;;;;;0.00;0.00;;;;;;;10.86;79.30;98241.91;15735234;28;20136;-52
2024/02/22 18:56:36;;;;;;;0.00;0.00;;;;;;;10.91;78.91;98231.19;15742046;28;20406;-48
2024/02/22 19:04:10;;;;;;;0.00;0.00;;;;;;;10.93;78.67;98218.28;15734611;28;20525;-50
2024/02/22 19:11:45;;;;;;;0.00;0.00;;;;;;;11.03;78.27;98209.41;15735578;28;20060;-51
2024/02/22 19:19:19;;;;;;;0.00;0.00;;;;;;;11.08;78.30;98187.09;15743955;28;20043;-49
2024/02/22 19:26:57;;;;;;;0.00;0.00;;;;;;;11.18;77.79;98177.09;15744288;28;20051;-50
2024/02/22 19:34:32;;;;;;;0.00;0.00;;;;;;;11.15;77.72;98185.72;15741967;28;20060;-51
2024/02/22 19:42:07;;;;;;;0.00;0.00;;;;;;;11.17;77.66;98167.44;15740908;28;20420;-50
2024/02/22 19:49:40;;;;;;;0.00;0.00;;;;;;;11.25;76.95;98149.97;15729368;28;20037;-49
2024/02/22 19:57:19;;;;;;;0.17;0.17;;;;;;;11.32;76.57;98146.97;15737571;28;20044;-48
2024/02/22 20:04:52;;;;;;;0.00;0.00;;;;;;;11.38;75.98;98141.28;15737645;28;20067;-48
2024/02/22 20:12:30;;;;;;;0.00;0.00;;;;;;;11.57;75.12;98144.09;15736677;28;20067;-48
2024/02/22 20:20:05;;;;;;;0.00;0.00;;;;;;;11.49;75.76;98128.56;15726747;28;20139;-49
2024/02/22 20:27:41;;;;;;;0.00;0.00;;;;;;;11.26;78.78;98134.66;15741424;28;20061;-48
2024/02/22 20:35:16;;;;;;;0.00;0.00;;;;;;;10.82;82.51;98141.59;15741305;28;20041;-49
2024/02/22 20:42:51;;;;;;;0.00;0.00;;;;;;;10.63;84.87;98128.00;15736283;28;20048;-52
2024/02/22 20:50:31;;;;;;;0.30;0.17;;;;;;;10.44;86.65;98124.28;15738423;28;20090;-49
2024/02/22 20:58:06;;;;;;;0.17;0.15;;;;;;;10.29;88.51;98110.94;15739941;28;20102;-47
2024/02/22 21:05:40;;;;;;;0.00;0.00;;;;;;;10.22;89.54;98095.94;15737834;28;20076;-48
2024/02/22 21:13:16;;;;;;;0.00;0.00;;;;;;;10.13;90.24;98088.72;15739195;28;20040;-49
2024/02/22 21:20:50;;;;;;;0.25;0.25;;;;;;;10.12;90.52;98071.84;15737656;28;20493;-47
2024/02/22 21:28:30;;;;;;;0.00;0.00;;;;;;;10.04;90.64;98056.31;15731156;28;20375;-48
2024/02/22 21:36:05;;;;;;;0.00;0.00;;;;;;;10.12;90.29;98045.03;15732822;28;20497;-49
2024/02/22 21:43:41;;;;;;;0.00;0.00;;;;;;;10.31;89.77;98064.03;15733427;28;20036;-50
2024/02/22 21:51:15;;;;;;;0.00;0.00;;;;;;;10.15;90.10;98041.78;15724273;28;20566;-47
2024/02/22 21:58:50;;;;;;;0.00;0.00;;;;;;;10.13;90.58;98038.59;15720771;28;20364;-46
2024/02/22 22:06:30;;;;;;;0.00;0.00;;;;;;;10.20;89.83;98049.00;15762868;22;21304;-48
2024/02/22 22:14:06;;;;;;;0.00;0.00;;;;;;;10.18;89.85;98043.13;15852604;28;20044;-48
2024/02/22 22:21:40;;;;;;;0.00;0.00;;;;;;;10.27;88.04;98036.16;15860783;28;20096;-49
2024/02/22 22:29:15;;;;;;;0.10;0.10;;;;;;;10.28;87.27;98026.25;15835263;28;20043;-46
2024/02/22 22:36:50;;;;;;;0.00;0.00;;;;;;;10.23;86.91;98024.34;15860008;28;20104;-47
2024/02/22 22:44:28;;;;;;;0.00;0.00;;;;;;;10.32;85.92;98019.25;15861794;28;20048;-49
2024/02/22 22:52:03;;;;;;;0.30;0.08;;;;;;;10.27;85.57;98011.22;15865122;28;20039;-49
2024/02/22 22:59:43;;;;;;;0.00;0.00;;;;;;;10.29;84.94;98017.91;15862936;28;20108;-47
2024/02/22 23:07:16;;;;;;;0.00;0.00;;;;;;;10.22;84.70;98010.16;15868895;28;20058;-45
2024/02/22 23:14:51;;;;;;;0.00;0.00;;;;;;;10.25;84.03;98003.44;15870037;28;20035;-46
2024/02/22 23:22:29;;;;;;;0.08;0.08;;;;;;;10.40;83.21;98005.28;15871438;28;20438;-48
2024/02/22 23:30:05;;;;;;;0.00;0.00;;;;;;;10.36;83.08;98014.94;15869764;28;20046;-49
2024/02/22 23:37:40;;;;;;;0.00;0.00;;;;;;;10.21;83.55;98031.84;15868677;28;20036;-48
2024/02/22 23:45:15;;;;;;;0.68;0.40;;;;;;;10.34;82.66;98033.16;15868348;28;20051;-46
2024/02/22 23:52:49;;;;;;;0.00;0.00;;;;;;;10.38;82.13;98035.03;15868531;28;20047;-49
